メインページ
METAR-TAF:

METAR-TAF

空港 :

シドニー国際空港

シドニー, オーストラリア

緯度: 33-57S, 経度: 151-11E, 海抜: 6m

現時点の気象観測

当レポートは35分前の20:30(UTC)に作成
西の風 6kt
気温 14°C
湿度 72%
気圧 1024 hPa
視程10km以上
高度4000ftの雲はほとんどない

METAR: YSSY 222030Z 26006KT 9999 FEW040 14/09 Q1024 NOSIG

時間: 07:05 (21:05 UTC)

予報

当レポートは4時間25分前の16:40(UTC)に作成
予報は22日の 18時(UTC)から 23日の 24時(UTC)まで有効
西の風 5kt
視程10km以上
高度3000ftの雲は散在している
22日の 2200時(UTC)から
南西の風 10kt
視程10km以上
高度3500ftの雲はほとんどない
23日の 0200時(UTC)から
東/南東の風 8kt
視程10km以上
1,500メートル以下は雲なし、積乱雲なし
23日の 0700時(UTC)から
東/北東の風 8kt
視程10km以上
1,500メートル以下は雲なし、積乱雲なし
23日の 1100時(UTC)から
西/北西の風 8kt
視程10km以上
1,500メートル以下は雲なし、積乱雲なし
23日の 2200時(UTC)から
南西の風 10kt
視程10km以上
高度2000ftの雲は散在している

TAF: YSSY 221640Z 2218/2324 27005KT 9999 SCT030 FM222200 22010KT 9999 FEW035 FM230200 12008KT CAVOK FM230700 06008KT CAVOK FM231100 29008KT CAVOK FM232200 22010KT 9999 SCT020

4,000以上の空港の気象観測と天気予報(METAR報とTAF報)

利用可能な観測所は地図上に黄色い丸と赤い丸で示す。

丸の上にカーソルを重ねると観測所名を参照できる。

次にクリックすると気象観測と天気予報を参照できる。

マップの切り替え:黒色「×」印の緑ボタンをクリックして拡大、「-」印の緑ボタンをクリックして縮小、緑色の三角印をクリックして隣りの地図に切り替え


METAR-TAF: